Time;durP1;ratioP1;P1;durP2;ratioP2;P2;SDS_P1;SDS_P2;PMS_P1;PMS_P2;Temp;Humidity;BMP_temperature;BMP_pressure;BME280_temperature;BME280_humidity;BME280_pressure;Samples;Min_cycle;Max_cycle;Signal;HPM_P1;HPM_P2
2022/01/31 00:01:23;;;;;;;13.58;6.42;;;0.60;99.90;;;;;;1911126;75;21180;-74
2022/01/31 00:03:51;;;;;;;16.25;6.10;;;0.60;99.90;;;;;;1903125;74;21063;-75
2022/01/31 00:06:18;;;;;;;19.67;6.80;;;0.50;99.90;;;;;;1895132;74;21055;-74
2022/01/31 00:08:45;;;;;;;14.40;6.70;;;0.60;99.90;;;;;;1898492;74;21046;-74
2022/01/31 00:11:13;;;;;;;16.85;6.75;;;0.50;99.90;;;;;;1900170;74;21051;-74
2022/01/31 00:13:45;;;;;;;17.30;7.17;;;0.60;99.90;;;;;;1899574;75;21059;-74
2022/01/31 00:16:14;;;;;;;20.62;7.80;;;0.80;99.90;;;;;;1897182;75;21114;-75
2022/01/31 00:18:40;;;;;;;25.15;7.62;;;0.70;99.90;;;;;;1910799;73;21118;-74
2022/01/31 00:21:08;;;;;;;30.20;8.48;;;0.70;99.90;;;;;;1914018;74;21568;-75
2022/01/31 00:23:35;;;;;;;20.32;7.53;;;0.70;99.90;;;;;;1904022;74;21074;-74
2022/01/31 00:26:02;;;;;;;17.32;6.08;;;0.80;99.90;;;;;;1883543;75;21202;-74
2022/01/31 00:28:30;;;;;;;14.95;5.00;;;0.80;99.90;;;;;;1884924;75;21108;-73
2022/01/31 00:30:57;;;;;;;14.28;6.17;;;0.80;99.90;;;;;;1901462;73;21565;-73
2022/01/31 00:33:24;;;;;;;12.35;6.00;;;0.90;99.90;;;;;;1892323;73;21066;-72
2022/01/31 00:35:52;;;;;;;14.55;5.80;;;0.90;99.90;;;;;;1915958;75;21058;-73
2022/01/31 00:38:19;;;;;;;18.92;6.30;;;0.90;99.90;;;;;;1883705;74;21081;-72
2022/01/31 00:40:46;;;;;;;14.95;5.65;;;0.90;99.90;;;;;;1903091;73;21072;-72
2022/01/31 00:43:15;;;;;;;14.20;5.30;;;1.00;99.90;;;;;;1911614;75;21172;-73
2022/01/31 00:45:59;;;;;;;14.23;5.78;;;1.00;99.90;;;;;;1911318;73;21110;-72
2022/01/31 00:48:19;;;;;;;14.38;5.78;;;1.10;99.90;;;;;;1896005;74;21144;-72
2022/01/31 00:50:47;;;;;;;16.65;5.92;;;1.10;99.90;;;;;;1885080;73;21051;-72
2022/01/31 00:53:12;;;;;;;21.48;6.10;;;1.10;99.90;;;;;;1886752;73;21063;-74
2022/01/31 00:55:40;;;;;;;15.43;5.90;;;1.10;99.90;;;;;;1886234;75;21070;-73
2022/01/31 00:58:07;;;;;;;9.88;4.40;;;1.30;99.90;;;;;;1905787;73;21478;-72
2022/01/31 01:00:34;;;;;;;11.35;4.87;;;1.40;99.90;;;;;;1893863;74;21173;-73
2022/01/31 01:03:02;;;;;;;8.98;4.70;;;1.40;99.90;;;;;;1914945;73;21074;-73
2022/01/31 01:05:29;;;;;;;18.07;5.65;;;1.40;99.90;;;;;;1913224;74;21094;-73
2022/01/31 01:07:57;;;;;;;15.15;5.42;;;1.50;99.90;;;;;;1906126;74;21074;-73
2022/01/31 01:10:24;;;;;;;13.60;5.45;;;1.60;99.90;;;;;;1916015;73;21439;-72
2022/01/31 01:12:52;;;;;;;14.43;5.30;;;1.60;99.90;;;;;;1915105;75;21207;-73
2022/01/31 01:15:19;;;;;;;30.40;5.95;;;1.60;99.90;;;;;;1912818;74;21078;-72
2022/01/31 01:17:47;;;;;;;15.43;5.80;;;1.60;99.90;;;;;;1900967;74;21108;-73
2022/01/31 01:20:16;;;;;;;12.45;5.40;;;1.50;99.90;;;;;;1865150;76;21485;-73
2022/01/31 01:22:44;;;;;;;15.32;5.25;;;1.50;99.90;;;;;;1892933;74;21074;-72
2022/01/31 01:25:13;;;;;;;11.65;5.05;;;1.40;99.90;;;;;;1910061;73;21153;-72
2022/01/31 01:27:42;;;;;;;12.33;4.30;;;1.50;99.90;;;;;;1900240;74;21078;-74
2022/01/31 01:30:11;;;;;;;14.78;4.90;;;1.60;99.90;;;;;;1893236;75;21136;-74
2022/01/31 01:32:49;;;;;;;17.52;5.10;;;1.60;99.90;;;;;;1896557;73;21075;-72
2022/01/31 01:35:08;;;;;;;15.90;5.83;;;1.70;99.90;;;;;;1901399;73;21193;-72
2022/01/31 01:37:35;;;;;;;16.95;4.45;;;1.80;99.90;;;;;;1916013;74;21144;-72
2022/01/31 01:40:04;;;;;;;11.03;5.45;;;1.90;99.90;;;;;;1914628;73;21558;-72
2022/01/31 01:42:31;;;;;;;14.38;5.17;;;1.80;99.90;;;;;;1909616;73;21155;-72
2022/01/31 01:44:58;;;;;;;18.95;5.47;;;1.90;99.90;;;;;;1903961;74;21241;-71
2022/01/31 01:47:26;;;;;;;15.05;5.05;;;1.80;99.90;;;;;;1895425;75;21167;-72
2022/01/31 01:49:53;;;;;;;12.43;4.45;;;1.70;99.90;;;;;;1913827;75;21114;-71
2022/01/31 01:52:21;;;;;;;15.55;5.35;;;1.80;99.90;;;;;;1903339;73;21462;-73
2022/01/31 01:54:48;;;;;;;11.43;5.72;;;1.80;99.90;;;;;;1902785;74;21221;-73
2022/01/31 01:57:17;;;;;;;17.67;5.83;;;2.00;99.90;;;;;;1883441;76;21104;-72
2022/01/31 01:59:44;;;;;;;15.50;6.45;;;1.80;99.90;;;;;;1895734;74;21198;-72
2022/01/31 02:02:11;;;;;;;15.18;6.20;;;1.80;99.90;;;;;;1902965;74;21074;-72
2022/01/31 02:04:40;;;;;;;21.15;6.58;;;1.70;99.90;;;;;;1886967;75;21078;-72
2022/01/31 02:07:09;;;;;;;20.80;6.62;;;1.70;99.90;;;;;;1899687;74;21462;-73
2022/01/31 02:09:42;;;;;;;24.05;6.97;;;1.70;99.90;;;;;;1907386;74;21148;-73
2022/01/31 02:12:05;;;;;;;18.00;6.47;;;1.60;99.90;;;;;;1902632;73;21238;-73
2022/01/31 02:14:32;;;;;;;17.45;6.58;;;1.70;99.90;;;;;;1902875;75;21106;-72
2022/01/31 02:17:00;;;;;;;20.60;6.75;;;1.70;99.90;;;;;;1918262;75;21011;-72
2022/01/31 02:19:27;;;;;;;22.60;5.87;;;1.70;99.90;;;;;;1899723;75;21066;-72
2022/01/31 02:21:55;;;;;;;14.40;5.75;;;1.80;99.90;;;;;;1901208;74;21136;-72
2022/01/31 02:24:22;;;;;;;23.75;6.00;;;1.90;99.90;;;;;;1910936;73;21078;-73
2022/01/31 02:26:49;;;;;;;17.05;5.87;;;1.90;99.90;;;;;;1893013;74;21131;-73
2022/01/31 02:29:17;;;;;;;14.00;5.62;;;1.90;99.90;;;;;;1891957;74;21087;-73
2022/01/31 02:31:45;;;;;;;23.22;6.28;;;1.80;99.90;;;;;;1894124;73;21104;-72
2022/01/31 02:34:12;;;;;;;13.65;5.85;;;2.00;99.90;;;;;;1886041;75;21182;-72
2022/01/31 02:36:40;;;;;;;22.77;6.10;;;2.00;99.90;;;;;;1894084;73;21062;-73
2022/01/31 02:39:07;;;;;;;13.45;5.53;;;1.80;99.90;;;;;;1916064;75;21038;-72
2022/01/31 02:41:41;;;;;;;25.48;7.33;;;1.80;99.90;;;;;;1901611;75;21113;-72
2022/01/31 02:44:17;;;;;;;16.90;6.12;;;1.80;99.90;;;;;;1916121;73;21051;-74
2022/01/31 02:46:38;;;;;;;11.33;5.22;;;1.80;99.90;;;;;;1909688;73;21159;-74
2022/01/31 02:49:06;;;;;;;16.05;6.12;;;1.80;99.90;;;;;;1911479;75;21057;-73
2022/01/31 02:51:33;;;;;;;14.40;6.08;;;1.70;99.90;;;;;;1895873;73;21054;-73
2022/01/31 02:54:01;;;;;;;17.87;5.92;;;1.70;99.90;;;;;;1891100;74;21067;-73
2022/01/31 02:56:30;;;;;;;24.25;6.67;;;1.70;99.90;;;;;;1860455;75;21061;-73
2022/01/31 02:58:57;;;;;;;13.22;6.10;;;1.70;99.90;;;;;;1915590;73;21447;-72
2022/01/31 03:01:24;;;;;;;20.30;5.75;;;1.70;99.90;;;;;;1900184;73;21147;-72
2022/01/31 03:03:52;;;;;;;19.40;5.83;;;1.80;99.90;;;;;;1905503;75;21172;-73
2022/01/31 03:06:19;;;;;;;12.07;5.42;;;1.90;99.90;;;;;;1902050;73;21050;-72
2022/01/31 03:08:46;;;;;;;19.90;5.42;;;1.90;99.90;;;;;;1906515;73;21074;-72
2022/01/31 03:11:14;;;;;;;11.97;5.42;;;1.90;99.90;;;;;;1907473;74;21195;-73
2022/01/31 03:13:41;;;;;;;15.03;5.30;;;2.00;99.90;;;;;;1891727;73;21241;-73
2022/01/31 03:16:08;;;;;;;17.37;5.87;;;2.10;99.90;;;;;;1895229;73;21490;-73
2022/01/31 03:18:35;;;;;;;11.88;5.62;;;2.00;99.90;;;;;;1904495;73;21070;-72
2022/01/31 03:21:03;;;;;;;11.38;5.20;;;2.00;99.90;;;;;;1900033;73;21103;-72
2022/01/31 03:23:30;;;;;;;15.23;5.62;;;2.00;99.90;;;;;;1886303;75;21441;-72
2022/01/31 03:25:57;;;;;;;16.25;5.00;;;1.90;99.90;;;;;;1883503;75;21070;-72
2022/01/31 03:28:25;;;;;;;14.10;5.03;;;2.00;99.90;;;;;;1892154;73;21135;-73
2022/01/31 03:30:52;;;;;;;14.20;5.60;;;2.00;99.90;;;;;;1899770;74;21074;-73
2022/01/31 03:33:20;;;;;;;18.73;5.75;;;2.00;99.90;;;;;;1915969;75;21121;-74
2022/01/31 03:35:47;;;;;;;18.90;5.12;;;2.00;99.90;;;;;;1915695;75;21019;-73
2022/01/31 03:38:14;;;;;;;13.13;5.00;;;2.10;99.90;;;;;;1906289;73;21130;-73
2022/01/31 03:40:42;;;;;;;17.55;5.20;;;2.20;99.90;;;;;;1914079;73;21155;-72
2022/01/31 03:43:09;;;;;;;15.28;5.00;;;2.00;99.90;;;;;;1910813;74;21472;-73
2022/01/31 03:45:36;;;;;;;10.40;4.95;;;2.10;99.90;;;;;;1901119;73;21069;-75
2022/01/31 03:48:06;;;;;;;14.43;4.47;;;2.10;99.90;;;;;;1892177;74;21475;-73
2022/01/31 03:50:33;;;;;;;15.18;4.65;;;2.20;99.90;;;;;;1909381;73;21518;-74
2022/01/31 03:53:00;;;;;;;12.93;3.90;;;2.20;99.90;;;;;;1906903;74;21159;-72
2022/01/31 03:55:27;;;;;;;15.85;5.10;;;2.20;99.90;;;;;;1902550;74;21065;-73
2022/01/31 03:57:55;;;;;;;9.88;4.33;;;2.30;99.90;;;;;;1892018;74;21070;-72
2022/01/31 04:00:24;;;;;;;12.47;4.47;;;2.30;99.90;;;;;;1910135;73;21078;-73
2022/01/31 04:02:52;;;;;;;11.78;4.17;;;2.40;99.90;;;;;;1903080;73;21561;-72
2022/01/31 04:05:19;;;;;;;8.60;3.50;;;2.50;99.90;;;;;;1910140;75;21078;-72
2022/01/31 04:07:46;;;;;;;15.15;4.03;;;2.60;99.90;;;;;;1899749;73;21149;-72
2022/01/31 04:10:14;;;;;;;13.50;4.40;;;2.60;99.90;;;;;;1896440;73;21062;-72
2022/01/31 04:12:41;;;;;;;21.10;4.40;;;2.60;99.90;;;;;;1910030;73;21077;-72
2022/01/31 04:15:09;;;;;;;10.15;4.10;;;2.60;99.90;;;;;;1891532;73;21468;-74
2022/01/31 04:17:38;;;;;;;15.00;4.20;;;2.60;99.90;;;;;;1912683;73;21540;-73
2022/01/31 04:20:11;;;;;;;14.33;4.35;;;2.60;99.90;;;;;;1906898;74;21217;-73
2022/01/31 04:22:42;;;;;;;16.17;4.60;;;2.50;99.90;;;;;;1910734;73;21536;-72
2022/01/31 04:25:13;;;;;;;16.95;5.90;;;2.60;99.90;;;;;;1915070;73;21483;-73
2022/01/31 04:27:44;;;;;;;11.50;4.87;;;2.70;99.90;;;;;;1890515;75;21430;-73
2022/01/31 04:30:06;;;;;;;16.70;4.97;;;2.70;99.90;;;;;;1891469;73;21114;-73
2022/01/31 04:32:33;;;;;;;21.27;4.87;;;2.70;99.90;;;;;;1915674;73;21119;-74
2022/01/31 04:35:02;;;;;;;12.00;4.83;;;2.70;99.90;;;;;;1912627;74;21152;-72
2022/01/31 04:37:29;;;;;;;17.77;5.10;;;2.60;99.90;;;;;;1903408;74;21444;-72
2022/01/31 04:39:56;;;;;;;13.03;4.62;;;2.70;99.90;;;;;;1904470;73;21144;-72
2022/01/31 04:42:25;;;;;;;12.07;4.20;;;2.70;99.90;;;;;;1897116;73;21479;-73
2022/01/31 04:44:55;;;;;;;11.70;4.42;;;2.70;99.90;;;;;;1886142;75;21053;-71
2022/01/31 04:47:21;;;;;;;21.97;5.47;;;2.80;99.90;;;;;;1875272;75;21074;-73
2022/01/31 04:49:51;;;;;;;9.93;4.42;;;2.80;99.90;;;;;;1871445;76;21463;-72
2022/01/31 04:52:17;;;;;;;8.40;4.03;;;2.90;99.90;;;;;;1874133;75;21066;-73
2022/01/31 04:54:44;;;;;;;14.50;4.67;;;2.90;99.90;;;;;;1895287;74;21085;-71
2022/01/31 04:57:12;;;;;;;16.80;4.78;;;2.90;99.90;;;;;;1905944;73;21067;-72
2022/01/31 04:59:43;;;;;;;17.95;4.80;;;2.90;99.90;;;;;;1887136;73;21533;-74
2022/01/31 05:02:08;;;;;;;13.25;4.33;;;2.90;99.90;;;;;;1883066;75;21045;-71
2022/01/31 05:04:37;;;;;;;13.22;4.72;;;2.90;99.90;;;;;;1899414;75;21070;-73
2022/01/31 05:07:04;;;;;;;12.90;4.80;;;2.90;99.90;;;;;;1886381;75;21038;-73
2022/01/31 05:09:32;;;;;;;16.70;4.12;;;2.90;99.90;;;;;;1906278;74;21448;-73
2022/01/31 05:11:59;;;;;;;9.20;4.55;;;2.90;99.90;;;;;;1883418;74;21132;-72
2022/01/31 05:14:27;;;;;;;13.65;4.22;;;2.90;99.90;;;;;;1885671;75;21091;-73
2022/01/31 05:16:54;;;;;;;24.43;4.92;;;3.00;99.90;;;;;;1897061;73;21148;-73
2022/01/31 05:19:21;;;;;;;8.03;3.42;;;3.10;99.90;;;;;;1891399;73;21112;-71
2022/01/31 05:21:49;;;;;;;12.55;3.92;;;3.20;99.90;;;;;;1909137;73;21148;-72
2022/01/31 05:24:16;;;;;;;12.00;3.80;;;3.30;99.90;;;;;;1902553;74;21078;-73
2022/01/31 05:26:43;;;;;;;15.68;3.80;;;3.40;99.90;;;;;;1915982;73;21204;-73
2022/01/31 05:29:11;;;;;;;10.78;3.87;;;3.40;99.90;;;;;;1912647;73;21544;-72
2022/01/31 05:31:38;;;;;;;11.70;3.70;;;3.40;99.90;;;;;;1905991;73;21070;-72
2022/01/31 05:34:05;;;;;;;10.15;3.30;;;3.40;99.90;;;;;;1883738;76;21021;-72
2022/01/31 05:36:33;;;;;;;9.83;4.00;;;3.30;99.90;;;;;;1913698;73;21700;-73
2022/01/31 05:39:00;;;;;;;13.30;3.47;;;3.40;99.90;;;;;;1898750;73;21038;-73
2022/01/31 05:41:28;;;;;;;11.00;3.80;;;3.50;99.90;;;;;;1888669;74;21109;-73
2022/01/31 05:43:55;;;;;;;14.55;3.65;;;3.50;99.90;;;;;;1901005;74;21079;-72
2022/01/31 05:46:22;;;;;;;14.30;3.80;;;3.50;99.90;;;;;;1891187;75;21071;-73
2022/01/31 05:48:51;;;;;;;14.78;3.30;;;3.60;99.90;;;;;;1902782;74;21067;-74
2022/01/31 05:51:20;;;;;;;16.20;3.42;;;3.60;99.90;;;;;;1911582;75;21078;-72
2022/01/31 05:53:48;;;;;;;15.17;4.13;;;3.60;99.90;;;;;;1874722;73;21073;-73
2022/01/31 05:56:16;;;;;;;7.30;2.62;;;3.70;99.90;;;;;;1896486;74;21482;-73
2022/01/31 05:58:43;;;;;;;11.40;2.67;;;3.70;99.90;;;;;;1907038;73;21160;-74
2022/01/31 06:01:11;;;;;;;12.60;2.52;;;3.80;99.90;;;;;;1894340;74;21062;-72
2022/01/31 06:03:38;;;;;;;7.33;3.02;;;3.90;99.90;;;;;;1909138;74;21572;-73
2022/01/31 06:06:05;;;;;;;9.60;3.33;;;3.90;99.90;;;;;;1905767;75;21031;-75
2022/01/31 06:08:33;;;;;;;19.60;3.27;;;4.00;99.90;;;;;;1905747;75;21043;-74
2022/01/31 06:11:00;;;;;;;12.40;3.42;;;4.00;99.90;;;;;;1905835;75;21380;-73
2022/01/31 06:13:35;;;;;;;9.65;2.83;;;4.10;99.90;;;;;;1905720;75;21042;-73
2022/01/31 06:15:59;;;;;;;8.93;3.42;;;4.20;99.90;;;;;;1903745;74;21480;-73
2022/01/31 06:18:26;;;;;;;6.58;2.47;;;4.20;99.90;;;;;;1905731;75;21117;-72
2022/01/31 06:20:54;;;;;;;10.18;3.00;;;4.20;99.90;;;;;;1905688;75;21058;-72
2022/01/31 06:23:21;;;;;;;10.75;2.55;;;4.20;99.90;;;;;;1905770;75;21054;-73
2022/01/31 06:25:49;;;;;;;7.85;2.20;;;4.20;99.90;;;;;;1905722;75;21035;-72
2022/01/31 06:28:16;;;;;;;6.28;2.37;;;4.30;99.90;;;;;;1905801;75;21047;-74
2022/01/31 06:30:43;;;;;;;9.43;2.40;;;4.30;99.90;;;;;;1905554;75;21455;-74
2022/01/31 06:33:15;;;;;;;11.05;3.02;;;4.30;99.90;;;;;;1905654;75;21089;-73
2022/01/31 06:35:40;;;;;;;9.55;2.83;;;4.30;99.90;;;;;;1905068;73;21059;-74
2022/01/31 06:38:07;;;;;;;5.67;2.55;;;4.30;99.90;;;;;;1905551;75;21043;-72
2022/01/31 06:40:34;;;;;;;8.28;2.80;;;4.20;99.90;;;;;;1905492;75;21164;-74
2022/01/31 06:43:01;;;;;;;7.95;3.00;;;4.30;99.90;;;;;;1905795;75;21505;-73
2022/01/31 06:45:29;;;;;;;14.00;2.62;;;4.20;99.90;;;;;;1905505;75;21034;-74
2022/01/31 06:47:57;;;;;;;10.88;2.92;;;4.10;99.90;;;;;;1905351;75;21066;-74
2022/01/31 06:50:25;;;;;;;10.85;2.87;;;4.00;99.90;;;;;;1910581;75;21129;-74
2022/01/31 06:52:55;;;;;;;12.40;3.10;;;3.90;99.90;;;;;;1907244;75;21054;-74
2022/01/31 06:55:21;;;;;;;9.40;3.00;;;3.90;99.90;;;;;;1909321;74;21500;-74
2022/01/31 06:57:51;;;;;;;11.12;3.20;;;3.90;99.90;;;;;;1907230;75;21746;-73
2022/01/31 07:00:19;;;;;;;6.97;2.65;;;3.90;99.90;;;;;;1882163;75;21117;-72
2022/01/31 07:02:47;;;;;;;9.50;3.15;;;3.90;99.90;;;;;;1909834;74;21090;-71
2022/01/31 07:05:14;;;;;;;6.90;2.70;;;3.90;99.90;;;;;;1905706;75;21070;-73
2022/01/31 07:07:42;;;;;;;6.28;2.58;;;3.90;99.90;;;;;;1905683;75;21109;-74
2022/01/31 07:10:10;;;;;;;11.80;2.80;;;3.90;99.90;;;;;;1905687;75;21096;-74
2022/01/31 07:12:39;;;;;;;7.12;2.60;;;3.90;99.90;;;;;;1905606;75;21015;-72
2022/01/31 07:15:10;;;;;;;13.88;3.10;;;3.90;99.90;;;;;;1905405;75;21047;-72
2022/01/31 07:17:37;;;;;;;14.65;3.72;;;3.90;99.90;;;;;;1905688;75;21046;-74
2022/01/31 07:20:09;;;;;;;5.92;2.50;;;3.90;99.90;;;;;;1905759;75;21215;-72
2022/01/31 07:22:37;;;;;;;10.90;3.62;;;4.00;99.90;;;;;;1905492;74;21266;-71
2022/01/31 07:25:20;;;;;;;11.63;3.05;;;3.90;99.90;;;;;;1880902;75;21106;-72
2022/01/31 07:27:37;;;;;;;15.40;3.30;;;3.90;99.90;;;;;;1903741;74;21476;-72
2022/01/31 07:30:06;;;;;;;13.70;3.42;;;3.90;99.90;;;;;;1905680;75;21067;-73
2022/01/31 07:32:35;;;;;;;14.45;3.42;;;3.90;99.90;;;;;;1905743;75;21116;-72
2022/01/31 07:35:02;;;;;;;8.63;3.60;;;3.80;99.90;;;;;;1906184;75;21067;-70
2022/01/31 07:37:30;;;;;;;9.33;2.98;;;3.80;99.90;;;;;;1906068;75;21459;-70
2022/01/31 07:39:58;;;;;;;15.55;3.50;;;3.80;99.90;;;;;;1906042;75;21144;-70
2022/01/31 07:42:26;;;;;;;8.05;3.10;;;3.80;99.90;;;;;;1881360;75;21067;-70
2022/01/31 07:44:54;;;;;;;10.00;3.02;;;3.80;99.90;;;;;;1905959;75;21031;-74
2022/01/31 07:47:21;;;;;;;8.73;2.92;;;3.80;99.90;;;;;;1906013;75;21070;-73
2022/01/31 07:49:51;;;;;;;16.20;2.72;;;3.80;99.90;;;;;;1905999;75;21054;-74
2022/01/31 07:52:17;;;;;;;9.25;3.22;;;3.80;99.90;;;;;;1905857;75;21464;-75
2022/01/31 07:54:45;;;;;;;8.90;3.22;;;3.80;99.90;;;;;;1905821;75;21086;-75
2022/01/31 07:57:12;;;;;;;4.37;2.58;;;3.80;99.90;;;;;;1905934;75;21017;-73
2022/01/31 07:59:40;;;;;;;14.40;3.75;;;3.80;99.90;;;;;;1906040;75;21016;-74
2022/01/31 08:02:07;;;;;;;8.95;2.95;;;3.80;99.90;;;;;;1906012;75;21411;-72
2022/01/31 08:04:38;;;;;;;6.35;2.92;;;3.80;99.90;;;;;;1906111;75;21069;-71
2022/01/31 08:07:05;;;;;;;14.23;3.60;;;3.80;99.90;;;;;;1906177;75;21152;-71
2022/01/31 08:09:32;;;;;;;6.58;2.67;;;3.80;99.90;;;;;;1905825;75;21501;-72
2022/01/31 08:12:03;;;;;;;8.73;2.80;;;3.90;99.90;;;;;;1905839;75;21035;-72
2022/01/31 08:14:31;;;;;;;9.78;3.05;;;3.90;99.90;;;;;;1905809;75;21407;-71
2022/01/31 08:16:58;;;;;;;11.28;2.90;;;3.80;99.90;;;;;;1905624;75;21451;-72
2022/01/31 08:19:26;;;;;;;7.22;2.92;;;3.70;99.90;;;;;;1905819;75;21078;-71
2022/01/31 08:21:55;;;;;;;11.55;3.00;;;3.80;99.90;;;;;;1905797;75;21140;-72
2022/01/31 08:24:24;;;;;;;6.22;2.47;;;3.80;99.90;;;;;;1905769;75;21209;-71
2022/01/31 08:26:51;;;;;;;5.87;2.65;;;3.80;99.90;;;;;;1905701;75;21011;-72
2022/01/31 08:29:26;;;;;;;4.53;2.47;;;3.80;99.90;;;;;;1905636;75;21113;-71
2022/01/31 08:31:52;;;;;;;8.73;2.65;;;3.80;99.90;;;;;;1905028;75;21169;-72
2022/01/31 08:34:24;;;;;;;7.95;2.98;;;3.80;99.90;;;;;;1905563;73;21080;-72
2022/01/31 08:36:48;;;;;;;7.97;2.50;;;3.90;99.90;;;;;;1905010;75;21144;-72
2022/01/31 08:39:19;;;;;;;4.10;2.05;;;3.90;99.90;;;;;;1905696;75;21133;-71
2022/01/31 08:41:50;;;;;;;6.05;2.22;;;3.90;99.90;;;;;;1905443;75;21071;-73
2022/01/31 08:44:19;;;;;;;12.20;2.17;;;4.00;99.90;;;;;;1905813;75;21055;-72
2022/01/31 08:46:47;;;;;;;6.65;2.17;;;4.10;99.90;;;;;;1905792;75;21427;-72
2022/01/31 08:49:15;;;;;;;4.10;2.37;;;4.10;99.90;;;;;;1905768;75;21012;-71
2022/01/31 08:51:42;;;;;;;3.65;1.80;;;4.20;99.90;;;;;;1905689;75;21124;-72
2022/01/31 08:54:10;;;;;;;2.83;1.82;;;4.30;99.90;;;;;;1905711;75;21533;-72
2022/01/31 08:56:44;;;;;;;2.65;1.62;;;4.40;99.90;;;;;;1905842;75;21431;-72
2022/01/31 08:59:14;;;;;;;3.65;1.37;;;4.40;99.90;;;;;;1905419;75;21097;-72
2022/01/31 09:01:43;;;;;;;4.83;1.50;;;4.50;99.90;;;;;;1905794;75;21140;-73
2022/01/31 09:04:12;;;;;;;1.55;1.20;;;4.50;99.90;;;;;;1905704;75;21585;-72
2022/01/31 09:06:43;;;;;;;2.52;1.10;;;4.60;99.90;;;;;;1905719;75;21062;-73
2022/01/31 09:09:09;;;;;;;1.75;1.17;;;4.70;99.90;;;;;;1905331;73;21538;-73
2022/01/31 09:11:37;;;;;;;1.10;0.85;;;4.80;99.90;;;;;;1905710;75;21549;-72
2022/01/31 09:14:04;;;;;;;2.55;1.10;;;4.90;99.90;;;;;;1905743;75;21067;-72
2022/01/31 09:16:33;;;;;;;1.70;0.85;;;4.90;99.90;;;;;;1905671;75;21046;-72
2022/01/31 09:19:02;;;;;;;3.30;1.12;;;5.00;99.90;;;;;;1905624;75;21427;-73
2022/01/31 09:21:29;;;;;;;1.37;0.62;;;4.90;99.90;;;;;;1905885;75;21066;-74
2022/01/31 09:23:57;;;;;;;2.27;1.10;;;5.00;99.90;;;;;;1908903;75;21046;-73
2022/01/31 09:26:24;;;;;;;1.27;0.75;;;5.10;99.90;;;;;;1907786;75;21429;-73
2022/01/31 09:28:52;;;;;;;2.12;0.80;;;5.10;99.90;;;;;;1905713;75;21230;-73
2022/01/31 09:31:20;;;;;;;2.95;0.90;;;5.20;99.90;;;;;;1905933;75;21101;-73
2022/01/31 09:33:49;;;;;;;1.52;0.68;;;5.40;99.90;;;;;;1906045;75;21067;-74
2022/01/31 09:36:16;;;;;;;3.40;0.88;;;5.50;99.90;;;;;;1906063;74;21055;-72
2022/01/31 09:38:43;;;;;;;0.57;0.57;;;5.90;99.90;;;;;;1906003;75;21021;-73
2022/01/31 09:41:15;;;;;;;1.77;1.02;;;6.40;99.90;;;;;;1907678;74;21067;-73
2022/01/31 09:48:51;;;;;;;1.55;1.00;;;6.40;99.90;;;;;;1905806;75;21149;-75
2022/01/31 09:51:20;;;;;;;3.15;1.10;;;6.40;99.90;;;;;;1880932;75;21117;-73
2022/01/31 09:53:50;;;;;;;2.72;0.90;;;6.30;99.90;;;;;;1905047;75;21106;-74
2022/01/31 09:56:21;;;;;;;3.25;1.02;;;6.10;99.90;;;;;;1906011;75;21046;-74
2022/01/31 09:58:48;;;;;;;3.37;1.00;;;6.20;99.90;;;;;;1905786;74;21474;-73
2022/01/31 10:01:20;;;;;;;5.17;1.30;;;6.20;99.90;;;;;;1905824;75;21513;-73
2022/01/31 10:03:58;;;;;;;2.22;0.90;;;6.20;99.90;;;;;;1905977;75;21023;-73
2022/01/31 10:06:29;;;;;;;1.20;0.90;;;6.30;99.90;;;;;;1905898;75;21019;-74
2022/01/31 10:09:05;;;;;;;2.77;1.30;;;6.20;99.90;;;;;;1905751;75;21204;-75
2022/01/31 10:11:56;;;;;;;3.83;1.17;;;6.20;99.90;;;;;;1905672;75;21043;-74
2022/01/31 10:17:01;;;;;;;1.82;1.00;;;6.20;99.90;;;;;;1905628;75;21472;-74
2022/01/31 10:19:28;;;;;;;2.22;1.00;;;6.10;99.90;;;;;;1905695;75;21036;-73
2022/01/31 10:22:06;;;;;;;3.20;0.93;;;6.10;99.90;;;;;;1905729;75;21043;-73
2022/01/31 10:24:34;;;;;;;1.05;0.88;;;6.00;99.90;;;;;;1905749;75;21113;-75
2022/01/31 10:27:13;;;;;;;1.47;1.02;;;6.10;99.90;;;;;;1905565;75;21038;-73
2022/01/31 10:29:41;;;;;;;4.37;1.30;;;6.10;99.90;;;;;;1905564;75;21046;-74
2022/01/31 10:32:18;;;;;;;3.08;1.37;;;6.20;99.90;;;;;;1905748;75;21019;-74
2022/01/31 10:34:52;;;;;;;4.08;1.30;;;6.30;99.90;;;;;;1905457;75;21109;-78
2022/01/31 10:37:21;;;;;;;5.70;1.25;;;6.30;99.90;;;;;;1905840;75;21120;-73
2022/01/31 10:53:46;;;;;;;1.60;0.88;;;6.60;99.90;;;;;;1905917;75;21238;-73
2022/01/31 10:56:12;;;;;;;4.28;1.10;;;6.60;99.90;;;;;;1905180;75;21078;-75
2022/01/31 10:58:59;;;;;;;1.92;1.30;;;6.70;99.90;;;;;;1905926;75;21035;-75
2022/01/31 11:01:26;;;;;;;3.98;1.55;;;6.70;99.90;;;;;;1905918;75;21066;-72
2022/01/31 11:03:54;;;;;;;4.05;1.20;;;6.80;99.90;;;;;;1905897;75;21034;-73
2022/01/31 11:06:23;;;;;;;1.25;0.65;;;6.90;99.90;;;;;;1906157;75;21432;-73
2022/01/31 11:08:52;;;;;;;3.10;1.00;;;6.90;99.90;;;;;;1906351;75;21095;-73
2022/01/31 11:11:22;;;;;;;4.33;1.30;;;7.00;99.90;;;;;;1906487;75;21116;-75
2022/01/31 11:13:49;;;;;;;4.33;1.15;;;6.90;99.90;;;;;;1906275;75;21087;-74
2022/01/31 11:16:16;;;;;;;3.35;1.17;;;6.80;99.90;;;;;;1905935;75;21572;-74
2022/01/31 11:18:44;;;;;;;3.40;1.05;;;6.80;99.90;;;;;;1906053;75;21047;-73
2022/01/31 11:21:12;;;;;;;3.95;1.07;;;6.80;99.90;;;;;;1906069;75;21466;-75
2022/01/31 11:23:43;;;;;;;1.98;1.07;;;6.80;99.90;;;;;;1880914;75;21510;-75
2022/01/31 11:26:11;;;;;;;3.60;1.10;;;6.90;99.90;;;;;;1905925;75;21471;-73
2022/01/31 11:28:42;;;;;;;2.98;1.20;;;6.80;99.90;;;;;;1906009;75;21129;-75
2022/01/31 11:31:09;;;;;;;5.22;1.62;;;6.70;99.90;;;;;;1881096;75;21047;-73
2022/01/31 11:33:37;;;;;;;5.55;1.50;;;6.80;99.90;;;;;;1880917;75;21419;-74
2022/01/31 11:36:04;;;;;;;2.20;0.82;;;6.90;99.90;;;;;;1905801;75;21071;-74
2022/01/31 11:38:33;;;;;;;3.37;1.20;;;6.80;99.90;;;;;;1906538;75;21151;-75
2022/01/31 11:41:03;;;;;;;3.40;1.30;;;6.70;99.90;;;;;;1906164;75;21522;-74
2022/01/31 11:43:31;;;;;;;3.33;1.40;;;6.70;99.90;;;;;;1905934;75;21042;-74
2022/01/31 11:46:00;;;;;;;3.22;1.00;;;6.60;99.90;;;;;;1905988;75;21117;-72
2022/01/31 11:48:29;;;;;;;1.77;0.80;;;6.50;99.90;;;;;;1910664;74;21113;-74
2022/01/31 11:50:59;;;;;;;2.20;1.10;;;6.40;99.90;;;;;;1905963;75;21478;-74
2022/01/31 11:53:34;;;;;;;11.93;1.50;;;6.40;99.90;;;;;;1890564;74;21627;-74
2022/01/31 11:56:20;;;;;;;2.08;1.30;;;6.40;99.90;;;;;;1896844;73;21071;-74
2022/01/31 11:58:50;;;;;;;2.77;0.90;;;6.20;99.90;;;;;;1886044;75;21070;-74
2022/01/31 12:01:18;;;;;;;6.33;1.10;;;6.20;99.90;;;;;;1889510;74;21035;-74
2022/01/31 12:03:59;;;;;;;3.17;0.70;;;6.30;99.90;;;;;;1904799;74;21308;-74
2022/01/31 12:06:28;;;;;;;5.05;1.32;;;6.10;99.90;;;;;;1904631;73;21070;-75
2022/01/31 12:09:04;;;;;;;2.67;0.80;;;6.10;99.90;;;;;;1906131;74;21082;-74
2022/01/31 12:11:32;;;;;;;4.62;1.00;;;6.20;99.90;;;;;;1912782;74;21161;-74
2022/01/31 12:14:08;;;;;;;2.77;0.98;;;6.00;99.90;;;;;;1856799;75;21084;-75
2022/01/31 12:16:46;;;;;;;3.00;1.17;;;6.10;99.90;;;;;;1894638;74;21094;-75
2022/01/31 12:22:00;;;;;;;3.10;1.10;;;6.10;99.90;;;;;;1906903;73;21111;-75
2022/01/31 12:24:40;;;;;;;3.55;0.85;;;6.10;99.90;;;;;;1896020;73;21143;-73
2022/01/31 12:27:13;;;;;;;6.33;1.02;;;6.10;99.90;;;;;;1908165;74;21074;-74
2022/01/31 12:29:52;;;;;;;2.40;1.00;;;5.90;99.90;;;;;;1899359;73;21471;-74
2022/01/31 12:32:33;;;;;;;6.92;0.95;;;6.00;99.90;;;;;;1886856;73;21151;-75
2022/01/31 12:35:05;;;;;;;4.67;1.00;;;5.90;99.90;;;;;;1891678;75;21034;-73
2022/01/31 12:37:36;;;;;;;2.87;1.00;;;6.00;99.90;;;;;;1918098;75;21034;-73
2022/01/31 12:40:30;;;;;;;7.12;1.30;;;6.10;99.90;;;;;;1912384;73;21159;-75
2022/01/31 12:45:43;;;;;;;4.00;1.00;;;6.10;99.90;;;;;;1912217;73;21082;-74
2022/01/31 12:48:14;;;;;;;2.00;0.72;;;6.00;99.90;;;;;;1902879;73;21054;-73
2022/01/31 12:50:56;;;;;;;2.83;1.02;;;6.00;99.90;;;;;;1890877;73;21059;-75
2022/01/31 12:53:36;;;;;;;2.77;1.20;;;6.00;99.90;;;;;;1913512;73;21086;-74
2022/01/31 12:56:13;;;;;;;3.77;1.07;;;6.00;99.90;;;;;;1889593;73;21074;-74
2022/01/31 12:58:46;;;;;;;3.72;1.22;;;5.90;99.90;;;;;;1910370;73;21074;-75
2022/01/31 13:01:15;;;;;;;1.87;1.02;;;5.90;99.90;;;;;;1910318;73;21479;-74
2022/01/31 13:03:45;;;;;;;4.58;1.30;;;5.80;99.90;;;;;;1891182;73;21111;-74
2022/01/31 13:06:32;;;;;;;3.12;1.27;;;5.80;99.90;;;;;;1883795;74;21147;-74
2022/01/31 13:09:01;;;;;;;6.03;1.10;;;5.80;99.90;;;;;;1910591;73;21086;-74
2022/01/31 13:11:29;;;;;;;5.83;1.77;;;5.80;99.90;;;;;;1903996;74;21050;-74
2022/01/31 13:14:06;;;;;;;1.65;0.82;;;5.90;99.90;;;;;;1897719;73;21141;-73
2022/01/31 13:16:45;;;;;;;5.75;2.17;;;5.80;99.90;;;;;;1915484;73;21082;-74
2022/01/31 13:19:17;;;;;;;3.22;1.12;;;5.60;99.90;;;;;;1896881;73;21062;-73
2022/01/31 13:21:45;;;;;;;4.50;1.35;;;5.70;99.90;;;;;;1904267;73;21129;-73
2022/01/31 13:24:12;;;;;;;7.65;1.27;;;5.80;99.90;;;;;;1909811;75;21544;-75
2022/01/31 13:26:51;;;;;;;3.98;1.52;;;5.80;99.90;;;;;;1908189;74;21074;-71
2022/01/31 13:29:42;;;;;;;4.90;1.57;;;5.80;99.90;;;;;;1897633;73;21185;-74